sensor_id;sensor_type;location;lat;lon;timestamp;temperature;humidity
76239;SHT30;65043;48.392;-4.472;2023-05-07T00:01:25;16.08;79.86
76239;SHT30;65043;48.392;-4.472;2023-05-07T00:03:51;16.06;79.42
76239;SHT30;65043;48.392;-4.472;2023-05-07T00:06:16;16.06;79.49
76239;SHT30;65043;48.392;-4.472;2023-05-07T00:08:42;16.05;79.29
76239;SHT30;65043;48.392;-4.472;2023-05-07T00:11:07;16.00;79.25
76239;SHT30;65043;48.392;-4.472;2023-05-07T00:13:33;16.02;79.10
76239;SHT30;65043;48.392;-4.472;2023-05-07T00:16:01;15.99;79.22
76239;SHT30;65043;48.392;-4.472;2023-05-07T00:18:27;15.96;78.97
76239;SHT30;65043;48.392;-4.472;2023-05-07T00:20:53;15.96;79.10
76239;SHT30;65043;48.392;-4.472;2023-05-07T00:23:19;15.95;79.37
76239;SHT30;65043;48.392;-4.472;2023-05-07T00:25:44;15.95;79.08
76239;SHT30;65043;48.392;-4.472;2023-05-07T00:28:09;15.90;78.91
76239;SHT30;65043;48.392;-4.472;2023-05-07T00:30:35;15.93;78.88
76239;SHT30;65043;48.392;-4.472;2023-05-07T00:33:00;15.90;79.12
76239;SHT30;65043;48.392;-4.472;2023-05-07T00:35:26;15.90;78.83
76239;SHT30;65043;48.392;-4.472;2023-05-07T00:37:51;15.89;78.94
76239;SHT30;65043;48.392;-4.472;2023-05-07T00:40:17;15.88;79.09
76239;SHT30;65043;48.392;-4.472;2023-05-07T00:42:42;15.88;78.92
76239;SHT30;65043;48.392;-4.472;2023-05-07T00:45:12;15.89;78.96
76239;SHT30;65043;48.392;-4.472;2023-05-07T00:47:39;15.86;78.94
76239;SHT30;65043;48.392;-4.472;2023-05-07T00:50:05;15.88;79.21
76239;SHT30;65043;48.392;-4.472;2023-05-07T00:52:30;15.88;79.26
76239;SHT30;65043;48.392;-4.472;2023-05-07T00:54:56;15.83;79.21
76239;SHT30;65043;48.392;-4.472;2023-05-07T00:57:23;15.83;79.14
76239;SHT30;65043;48.392;-4.472;2023-05-07T00:59:51;15.86;79.16
76239;SHT30;65043;48.392;-4.472;2023-05-07T01:02:16;15.83;79.09
76239;SHT30;65043;48.392;-4.472;2023-05-07T01:04:42;15.86;79.02
76239;SHT30;65043;48.392;-4.472;2023-05-07T01:07:07;15.86;79.27
76239;SHT30;65043;48.392;-4.472;2023-05-07T01:09:34;15.85;78.86
76239;SHT30;65043;48.392;-4.472;2023-05-07T01:12:00;15.85;78.79
76239;SHT30;65043;48.392;-4.472;2023-05-07T01:14:26;15.85;78.76
76239;SHT30;65043;48.392;-4.472;2023-05-07T01:16:52;15.85;78.68
76239;SHT30;65043;48.392;-4.472;2023-05-07T01:19:18;15.83;78.76
76239;SHT30;65043;48.392;-4.472;2023-05-07T01:21:48;15.83;78.81
76239;SHT30;65043;48.392;-4.472;2023-05-07T01:24:14;15.79;78.76
76239;SHT30;65043;48.392;-4.472;2023-05-07T01:26:41;15.82;78.75
76239;SHT30;65043;48.392;-4.472;2023-05-07T01:29:06;15.85;78.94
76239;SHT30;65043;48.392;-4.472;2023-05-07T01:31:34;15.82;78.99
76239;SHT30;65043;48.392;-4.472;2023-05-07T01:34:01;15.81;78.95
76239;SHT30;65043;48.392;-4.472;2023-05-07T01:36:27;15.81;79.06
76239;SHT30;65043;48.392;-4.472;2023-05-07T01:38:54;15.78;78.63
76239;SHT30;65043;48.392;-4.472;2023-05-07T01:41:19;15.81;78.52
76239;SHT30;65043;48.392;-4.472;2023-05-07T01:43:47;15.78;79.06
76239;SHT30;65043;48.392;-4.472;2023-05-07T01:46:12;15.79;78.80
76239;SHT30;65043;48.392;-4.472;2023-05-07T01:48:38;15.79;78.61
76239;SHT30;65043;48.392;-4.472;2023-05-07T01:51:04;15.77;78.33
76239;SHT30;65043;48.392;-4.472;2023-05-07T01:53:38;15.78;78.83
76239;SHT30;65043;48.392;-4.472;2023-05-07T01:56:04;15.77;78.43
76239;SHT30;65043;48.392;-4.472;2023-05-07T01:58:30;15.78;78.66
76239;SHT30;65043;48.392;-4.472;2023-05-07T02:00:56;15.75;78.65
76239;SHT30;65043;48.392;-4.472;2023-05-07T02:03:21;15.75;78.56
76239;SHT30;65043;48.392;-4.472;2023-05-07T02:05:47;15.77;78.33
76239;SHT30;65043;48.392;-4.472;2023-05-07T02:08:12;15.72;78.37
76239;SHT30;65043;48.392;-4.472;2023-05-07T02:10:38;15.72;78.63
76239;SHT30;65043;48.392;-4.472;2023-05-07T02:13:03;15.71;78.75
76239;SHT30;65043;48.392;-4.472;2023-05-07T02:15:28;15.69;78.39
76239;SHT30;65043;48.392;-4.472;2023-05-07T02:18:05;15.72;78.41
76239;SHT30;65043;48.392;-4.472;2023-05-07T02:20:34;15.75;78.50
76239;SHT30;65043;48.392;-4.472;2023-05-07T02:23:00;15.69;78.50
76239;SHT30;65043;48.392;-4.472;2023-05-07T02:25:26;15.71;78.23
76239;SHT30;65043;48.392;-4.472;2023-05-07T02:27:51;15.71;78.58
76239;SHT30;65043;48.392;-4.472;2023-05-07T02:30:17;15.72;78.41
76239;SHT30;65043;48.392;-4.472;2023-05-07T02:32:42;15.71;78.39
76239;SHT30;65043;48.392;-4.472;2023-05-07T02:35:08;15.71;78.24
76239;SHT30;65043;48.392;-4.472;2023-05-07T02:37:33;15.71;78.47
76239;SHT30;65043;48.392;-4.472;2023-05-07T02:39:58;15.69;78.35
76239;SHT30;65043;48.392;-4.472;2023-05-07T02:42:24;15.71;78.08
76239;SHT30;65043;48.392;-4.472;2023-05-07T02:44:49;15.68;78.43
76239;SHT30;65043;48.392;-4.472;2023-05-07T02:47:15;15.68;78.59
76239;SHT30;65043;48.392;-4.472;2023-05-07T02:49:40;15.68;78.28
76239;SHT30;65043;48.392;-4.472;2023-05-07T02:52:06;15.69;78.08
76239;SHT30;65043;48.392;-4.472;2023-05-07T02:54:32;15.69;77.85
76239;SHT30;65043;48.392;-4.472;2023-05-07T02:56:58;15.68;78.10
76239;SHT30;65043;48.392;-4.472;2023-05-07T02:59:23;15.71;77.94
76239;SHT30;65043;48.392;-4.472;2023-05-07T03:01:49;15.71;77.83
76239;SHT30;65043;48.392;-4.472;2023-05-07T03:04:14;15.68;77.61
76239;SHT30;65043;48.392;-4.472;2023-05-07T03:06:40;15.65;77.80
76239;SHT30;65043;48.392;-4.472;2023-05-07T03:09:05;15.65;77.78
76239;SHT30;65043;48.392;-4.472;2023-05-07T03:11:31;15.65;77.50
76239;SHT30;65043;48.392;-4.472;2023-05-07T03:13:56;15.61;77.47
76239;SHT30;65043;48.392;-4.472;2023-05-07T03:16:22;15.63;77.60
76239;SHT30;65043;48.392;-4.472;2023-05-07T03:18:47;15.62;77.61
76239;SHT30;65043;48.392;-4.472;2023-05-07T03:21:12;15.61;77.37
76239;SHT30;65043;48.392;-4.472;2023-05-07T03:23:38;15.59;77.70
76239;SHT30;65043;48.392;-4.472;2023-05-07T03:26:04;15.58;77.68
76239;SHT30;65043;48.392;-4.472;2023-05-07T03:28:29;15.59;77.59
76239;SHT30;65043;48.392;-4.472;2023-05-07T03:30:55;15.61;77.58
76239;SHT30;65043;48.392;-4.472;2023-05-07T03:33:20;15.59;77.42
76239;SHT30;65043;48.392;-4.472;2023-05-07T03:35:46;15.59;77.67
76239;SHT30;65043;48.392;-4.472;2023-05-07T03:38:11;15.59;77.47
76239;SHT30;65043;48.392;-4.472;2023-05-07T03:40:37;15.59;77.76
76239;SHT30;65043;48.392;-4.472;2023-05-07T03:43:02;15.61;77.21
76239;SHT30;65043;48.392;-4.472;2023-05-07T03:45:27;15.62;77.02
76239;SHT30;65043;48.392;-4.472;2023-05-07T03:47:53;15.59;76.93
76239;SHT30;65043;48.392;-4.472;2023-05-07T03:50:19;15.59;77.13
76239;SHT30;65043;48.392;-4.472;2023-05-07T03:52:44;15.58;76.91
76239;SHT30;65043;48.392;-4.472;2023-05-07T03:55:10;15.61;76.89
76239;SHT30;65043;48.392;-4.472;2023-05-07T03:57:36;15.63;76.85
76239;SHT30;65043;48.392;-4.472;2023-05-07T04:00:02;15.58;76.83
76239;SHT30;65043;48.392;-4.472;2023-05-07T04:02:28;15.58;76.70
76239;SHT30;65043;48.392;-4.472;2023-05-07T04:04:54;15.57;76.91
76239;SHT30;65043;48.392;-4.472;2023-05-07T04:07:19;15.59;77.06
76239;SHT30;65043;48.392;-4.472;2023-05-07T04:09:45;15.61;76.90
76239;SHT30;65043;48.392;-4.472;2023-05-07T04:12:10;15.59;77.23
76239;SHT30;65043;48.392;-4.472;2023-05-07T04:14:36;15.57;76.82
76239;SHT30;65043;48.392;-4.472;2023-05-07T04:17:01;15.57;77.14
76239;SHT30;65043;48.392;-4.472;2023-05-07T04:19:27;15.57;77.11
76239;SHT30;65043;48.392;-4.472;2023-05-07T04:21:53;15.58;76.93
76239;SHT30;65043;48.392;-4.472;2023-05-07T04:24:18;15.58;76.82
76239;SHT30;65043;48.392;-4.472;2023-05-07T04:26:44;15.57;77.00
76239;SHT30;65043;48.392;-4.472;2023-05-07T04:29:09;15.58;77.09
76239;SHT30;65043;48.392;-4.472;2023-05-07T04:31:35;15.59;76.87
76239;SHT30;65043;48.392;-4.472;2023-05-07T04:34:00;15.59;77.19
76239;SHT30;65043;48.392;-4.472;2023-05-07T04:36:26;15.59;76.89
76239;SHT30;65043;48.392;-4.472;2023-05-07T04:38:53;15.58;77.28
76239;SHT30;65043;48.392;-4.472;2023-05-07T04:41:18;15.57;76.95
76239;SHT30;65043;48.392;-4.472;2023-05-07T04:43:44;15.58;77.11
76239;SHT30;65043;48.392;-4.472;2023-05-07T04:46:09;15.59;76.67
76239;SHT30;65043;48.392;-4.472;2023-05-07T04:48:35;15.58;77.07
76239;SHT30;65043;48.392;-4.472;2023-05-07T04:51:00;15.59;76.84
76239;SHT30;65043;48.392;-4.472;2023-05-07T04:53:26;15.57;76.79
76239;SHT30;65043;48.392;-4.472;2023-05-07T04:55:56;15.57;76.84
76239;SHT30;65043;48.392;-4.472;2023-05-07T04:58:24;15.55;76.77
76239;SHT30;65043;48.392;-4.472;2023-05-07T05:00:50;15.57;76.53
76239;SHT30;65043;48.392;-4.472;2023-05-07T05:03:15;15.54;76.82
76239;SHT30;65043;48.392;-4.472;2023-05-07T05:05:41;15.51;76.89
76239;SHT30;65043;48.392;-4.472;2023-05-07T05:08:06;15.54;76.73
76239;SHT30;65043;48.392;-4.472;2023-05-07T05:10:31;15.55;76.49
76239;SHT30;65043;48.392;-4.472;2023-05-07T05:12:57;15.55;76.48
76239;SHT30;65043;48.392;-4.472;2023-05-07T05:15:22;15.54;76.52
76239;SHT30;65043;48.392;-4.472;2023-05-07T05:17:48;15.52;76.71
76239;SHT30;65043;48.392;-4.472;2023-05-07T05:20:13;15.55;76.40
76239;SHT30;65043;48.392;-4.472;2023-05-07T05:22:40;15.52;76.41
76239;SHT30;65043;48.392;-4.472;2023-05-07T05:25:05;15.54;76.41
76239;SHT30;65043;48.392;-4.472;2023-05-07T05:27:31;15.51;76.45
76239;SHT30;65043;48.392;-4.472;2023-05-07T05:29:56;15.51;76.68
76239;SHT30;65043;48.392;-4.472;2023-05-07T05:32:22;15.51;76.69
76239;SHT30;65043;48.392;-4.472;2023-05-07T05:34:47;15.49;76.15
76239;SHT30;65043;48.392;-4.472;2023-05-07T05:37:13;15.49;76.46
76239;SHT30;65043;48.392;-4.472;2023-05-07T05:39:38;15.51;76.70
76239;SHT30;65043;48.392;-4.472;2023-05-07T05:42:03;15.51;76.39
76239;SHT30;65043;48.392;-4.472;2023-05-07T05:44:29;15.48;76.82
76239;SHT30;65043;48.392;-4.472;2023-05-07T05:46:54;15.52;76.64
76239;SHT30;65043;48.392;-4.472;2023-05-07T05:49:22;15.51;76.32
76239;SHT30;65043;48.392;-4.472;2023-05-07T05:51:48;15.51;76.29
76239;SHT30;65043;48.392;-4.472;2023-05-07T05:54:13;15.52;76.34
76239;SHT30;65043;48.392;-4.472;2023-05-07T05:56:38;15.49;75.61
76239;SHT30;65043;48.392;-4.472;2023-05-07T05:59:04;15.49;75.86
76239;SHT30;65043;48.392;-4.472;2023-05-07T06:01:29;15.51;75.68
76239;SHT30;65043;48.392;-4.472;2023-05-07T06:03:56;15.49;75.90
76239;SHT30;65043;48.392;-4.472;2023-05-07T06:06:21;15.49;76.11
76239;SHT30;65043;48.392;-4.472;2023-05-07T06:08:47;15.48;76.28
76239;SHT30;65043;48.392;-4.472;2023-05-07T06:11:12;15.51;75.89
76239;SHT30;65043;48.392;-4.472;2023-05-07T06:13:37;15.47;76.48
76239;SHT30;65043;48.392;-4.472;2023-05-07T06:16:03;15.48;76.36
76239;SHT30;65043;48.392;-4.472;2023-05-07T06:18:28;15.49;76.24
76239;SHT30;65043;48.392;-4.472;2023-05-07T06:20:54;15.52;75.69
76239;SHT30;65043;48.392;-4.472;2023-05-07T06:23:19;15.51;75.69
76239;SHT30;65043;48.392;-4.472;2023-05-07T06:25:48;15.52;75.91
76239;SHT30;65043;48.392;-4.472;2023-05-07T06:28:15;15.52;75.56
76239;SHT30;65043;48.392;-4.472;2023-05-07T06:30:40;15.55;75.09
76239;SHT30;65043;48.392;-4.472;2023-05-07T06:33:06;15.55;75.48
76239;SHT30;65043;48.392;-4.472;2023-05-07T06:35:31;15.52;75.50
76239;SHT30;65043;48.392;-4.472;2023-05-07T06:37:56;15.55;75.48
76239;SHT30;65043;48.392;-4.472;2023-05-07T06:40:22;15.57;75.75
76239;SHT30;65043;48.392;-4.472;2023-05-07T06:42:47;15.57;75.88
76239;SHT30;65043;48.392;-4.472;2023-05-07T06:45:12;15.55;76.06
76239;SHT30;65043;48.392;-4.472;2023-05-07T06:47:38;15.55;75.98
76239;SHT30;65043;48.392;-4.472;2023-05-07T06:50:03;15.57;76.04
76239;SHT30;65043;48.392;-4.472;2023-05-07T06:52:29;15.57;75.99
76239;SHT30;65043;48.392;-4.472;2023-05-07T06:54:54;15.58;75.70
76239;SHT30;65043;48.392;-4.472;2023-05-07T06:57:20;15.57;75.65
76239;SHT30;65043;48.392;-4.472;2023-05-07T06:59:45;15.57;75.94
76239;SHT30;65043;48.392;-4.472;2023-05-07T07:02:10;15.58;75.79
76239;SHT30;65043;48.392;-4.472;2023-05-07T07:04:36;15.55;75.62
76239;SHT30;65043;48.392;-4.472;2023-05-07T07:07:01;15.57;75.27
76239;SHT30;65043;48.392;-4.472;2023-05-07T07:09:27;15.59;75.42
76239;SHT30;65043;48.392;-4.472;2023-05-07T07:11:52;15.61;74.71
76239;SHT30;65043;48.392;-4.472;2023-05-07T07:14:17;15.61;74.16
76239;SHT30;65043;48.392;-4.472;2023-05-07T07:16:43;15.62;74.60
76239;SHT30;65043;48.392;-4.472;2023-05-07T07:19:08;15.61;74.39
76239;SHT30;65043;48.392;-4.472;2023-05-07T07:21:34;15.62;74.69
76239;SHT30;65043;48.392;-4.472;2023-05-07T07:23:59;15.59;74.90
76239;SHT30;65043;48.392;-4.472;2023-05-07T07:26:24;15.61;75.40
76239;SHT30;65043;48.392;-4.472;2023-05-07T07:28:50;15.59;74.85
76239;SHT30;65043;48.392;-4.472;2023-05-07T07:31:15;15.63;75.30
76239;SHT30;65043;48.392;-4.472;2023-05-07T07:33:41;15.59;74.63
76239;SHT30;65043;48.392;-4.472;2023-05-07T07:36:07;15.59;75.40
76239;SHT30;65043;48.392;-4.472;2023-05-07T07:38:32;15.61;75.14
76239;SHT30;65043;48.392;-4.472;2023-05-07T07:40:58;15.61;75.55
76239;SHT30;65043;48.392;-4.472;2023-05-07T07:43:23;15.63;75.30
76239;SHT30;65043;48.392;-4.472;2023-05-07T07:45:49;15.63;75.41
76239;SHT30;65043;48.392;-4.472;2023-05-07T07:48:14;15.66;74.85
76239;SHT30;65043;48.392;-4.472;2023-05-07T07:50:40;15.69;74.45
76239;SHT30;65043;48.392;-4.472;2023-05-07T07:53:05;15.72;73.90
76239;SHT30;65043;48.392;-4.472;2023-05-07T07:55:31;15.73;73.73
76239;SHT30;65043;48.392;-4.472;2023-05-07T07:57:57;15.75;74.63
76239;SHT30;65043;48.392;-4.472;2023-05-07T08:00:22;15.72;74.63
76239;SHT30;65043;48.392;-4.472;2023-05-07T08:02:48;15.75;73.99
76239;SHT30;65043;48.392;-4.472;2023-05-07T08:05:14;15.75;74.59
76239;SHT30;65043;48.392;-4.472;2023-05-07T08:07:40;15.73;75.01
76239;SHT30;65043;48.392;-4.472;2023-05-07T08:10:06;15.78;74.50
76239;SHT30;65043;48.392;-4.472;2023-05-07T08:12:31;15.79;74.82
76239;SHT30;65043;48.392;-4.472;2023-05-07T08:14:57;15.79;75.15
76239;SHT30;65043;48.392;-4.472;2023-05-07T08:17:22;15.82;74.89
76239;SHT30;65043;48.392;-4.472;2023-05-07T08:19:48;15.82;74.67
76239;SHT30;65043;48.392;-4.472;2023-05-07T08:22:13;15.82;74.27
76239;SHT30;65043;48.392;-4.472;2023-05-07T08:24:39;15.86;74.94
76239;SHT30;65043;48.392;-4.472;2023-05-07T08:27:05;15.86;74.92
76239;SHT30;65043;48.392;-4.472;2023-05-07T08:29:30;15.86;74.52
76239;SHT30;65043;48.392;-4.472;2023-05-07T08:31:56;15.86;73.70
76239;SHT30;65043;48.392;-4.472;2023-05-07T08:34:22;15.89;74.05
76239;SHT30;65043;48.392;-4.472;2023-05-07T08:36:47;15.93;74.12
76239;SHT30;65043;48.392;-4.472;2023-05-07T08:39:15;15.98;74.27
76239;SHT30;65043;48.392;-4.472;2023-05-07T08:41:44;16.02;73.98
76239;SHT30;65043;48.392;-4.472;2023-05-07T08:44:12;16.05;73.12
76239;SHT30;65043;48.392;-4.472;2023-05-07T08:46:39;16.10;73.27
76239;SHT30;65043;48.392;-4.472;2023-05-07T08:49:05;16.12;72.66
76239;SHT30;65043;48.392;-4.472;2023-05-07T08:51:31;16.17;72.71
76239;SHT30;65043;48.392;-4.472;2023-05-07T08:53:56;16.17;72.60
76239;SHT30;65043;48.392;-4.472;2023-05-07T08:56:22;16.17;73.18
76239;SHT30;65043;48.392;-4.472;2023-05-07T08:58:48;16.20;72.75
76239;SHT30;65043;48.392;-4.472;2023-05-07T09:01:14;16.21;72.30
76239;SHT30;65043;48.392;-4.472;2023-05-07T09:03:40;16.24;71.75
76239;SHT30;65043;48.392;-4.472;2023-05-07T09:06:06;16.24;71.54
76239;SHT30;65043;48.392;-4.472;2023-05-07T09:08:33;16.29;71.63
76239;SHT30;65043;48.392;-4.472;2023-05-07T09:10:59;16.27;71.42
76239;SHT30;65043;48.392;-4.472;2023-05-07T09:13:24;16.29;71.57
76239;SHT30;65043;48.392;-4.472;2023-05-07T09:15:50;16.31;70.14
76239;SHT30;65043;48.392;-4.472;2023-05-07T09:18:15;16.37;70.32
76239;SHT30;65043;48.392;-4.472;2023-05-07T09:20:41;16.40;70.73
76239;SHT30;65043;48.392;-4.472;2023-05-07T09:23:07;16.46;70.90
76239;SHT30;65043;48.392;-4.472;2023-05-07T09:25:34;16.47;70.60
76239;SHT30;65043;48.392;-4.472;2023-05-07T09:28:01;16.51;70.42
76239;SHT30;65043;48.392;-4.472;2023-05-07T09:30:28;16.57;70.18
76239;SHT30;65043;48.392;-4.472;2023-05-07T09:32:54;16.60;70.09
76239;SHT30;65043;48.392;-4.472;2023-05-07T09:35:20;16.64;69.86
76239;SHT30;65043;48.392;-4.472;2023-05-07T09:38:00;16.64;69.87
76239;SHT30;65043;48.392;-4.472;2023-05-07T09:40:28;16.65;69.37
76239;SHT30;65043;48.392;-4.472;2023-05-07T09:42:55;16.68;69.40
76239;SHT30;65043;48.392;-4.472;2023-05-07T09:45:27;16.70;69.11
76239;SHT30;65043;48.392;-4.472;2023-05-07T09:47:57;16.71;69.44
76239;SHT30;65043;48.392;-4.472;2023-05-07T09:50:28;16.72;69.51
76239;SHT30;65043;48.392;-4.472;2023-05-07T09:52:55;16.75;69.43
76239;SHT30;65043;48.392;-4.472;2023-05-07T09:55:22;16.77;69.75
76239;SHT30;65043;48.392;-4.472;2023-05-07T09:57:51;16.78;68.89
76239;SHT30;65043;48.392;-4.472;2023-05-07T10:00:19;16.79;69.28
76239;SHT30;65043;48.392;-4.472;2023-05-07T10:02:51;16.82;68.79
76239;SHT30;65043;48.392;-4.472;2023-05-07T10:05:21;16.82;68.65
76239;SHT30;65043;48.392;-4.472;2023-05-07T10:07:47;16.84;69.19
76239;SHT30;65043;48.392;-4.472;2023-05-07T10:10:13;16.85;69.22
76239;SHT30;65043;48.392;-4.472;2023-05-07T10:12:40;16.89;69.49
76239;SHT30;65043;48.392;-4.472;2023-05-07T10:15:09;16.95;68.80
76239;SHT30;65043;48.392;-4.472;2023-05-07T10:17:39;16.99;69.41
76239;SHT30;65043;48.392;-4.472;2023-05-07T10:20:06;17.02;68.44
76239;SHT30;65043;48.392;-4.472;2023-05-07T10:22:38;17.02;68.10
76239;SHT30;65043;48.392;-4.472;2023-05-07T10:25:06;17.05;68.72
76239;SHT30;65043;48.392;-4.472;2023-05-07T10:27:35;17.07;68.64
76239;SHT30;65043;48.392;-4.472;2023-05-07T10:32:56;17.14;68.08
76239;SHT30;65043;48.392;-4.472;2023-05-07T10:35:32;17.14;68.67
76239;SHT30;65043;48.392;-4.472;2023-05-07T10:38:02;17.18;69.05
76239;SHT30;65043;48.392;-4.472;2023-05-07T10:40:27;17.20;69.00
76239;SHT30;65043;48.392;-4.472;2023-05-07T10:43:11;17.20;68.97
76239;SHT30;65043;48.392;-4.472;2023-05-07T10:45:37;17.18;69.63
76239;SHT30;65043;48.392;-4.472;2023-05-07T10:50:33;17.22;69.38
76239;SHT30;65043;48.392;-4.472;2023-05-07T10:56:26;17.16;69.52
76239;SHT30;65043;48.392;-4.472;2023-05-07T10:58:32;17.12;69.76
76239;SHT30;65043;48.392;-4.472;2023-05-07T11:01:02;17.12;69.75
76239;SHT30;65043;48.392;-4.472;2023-05-07T11:03:28;17.08;70.14
76239;SHT30;65043;48.392;-4.472;2023-05-07T11:06:11;17.02;70.44
76239;SHT30;65043;48.392;-4.472;2023-05-07T11:11:17;16.98;70.84
76239;SHT30;65043;48.392;-4.472;2023-05-07T11:13:44;16.99;70.94
76239;SHT30;65043;48.392;-4.472;2023-05-07T11:18:52;16.98;70.56
76239;SHT30;65043;48.392;-4.472;2023-05-07T11:21:38;16.95;70.29
76239;SHT30;65043;48.392;-4.472;2023-05-07T11:24:08;16.98;70.35
76239;SHT30;65043;48.392;-4.472;2023-05-07T11:29:15;16.89;70.57
76239;SHT30;65043;48.392;-4.472;2023-05-07T11:31:41;16.88;70.52
76239;SHT30;65043;48.392;-4.472;2023-05-07T11:34:07;16.88;70.61
76239;SHT30;65043;48.392;-4.472;2023-05-07T11:36:33;16.89;70.49
76239;SHT30;65043;48.392;-4.472;2023-05-07T11:38:59;16.85;70.61
76239;SHT30;65043;48.392;-4.472;2023-05-07T11:41:35;16.88;70.77
76239;SHT30;65043;48.392;-4.472;2023-05-07T11:44:01;16.91;70.48
76239;SHT30;65043;48.392;-4.472;2023-05-07T11:46:27;16.91;70.39
76239;SHT30;65043;48.392;-4.472;2023-05-07T11:48:53;16.96;70.76
76239;SHT30;65043;48.392;-4.472;2023-05-07T11:51:25;16.99;71.23
76239;SHT30;65043;48.392;-4.472;2023-05-07T11:53:51;16.98;71.08
76239;SHT30;65043;48.392;-4.472;2023-05-07T11:56:18;16.98;71.39
76239;SHT30;65043;48.392;-4.472;2023-05-07T11:58:45;16.95;71.18
76239;SHT30;65043;48.392;-4.472;2023-05-07T12:01:12;16.94;71.56
76239;SHT30;65043;48.392;-4.472;2023-05-07T12:03:40;16.92;71.80
76239;SHT30;65043;48.392;-4.472;2023-05-07T12:06:14;16.88;71.82
76239;SHT30;65043;48.392;-4.472;2023-05-07T12:08:41;16.89;71.93
76239;SHT30;65043;48.392;-4.472;2023-05-07T12:11:08;16.88;71.98
76239;SHT30;65043;48.392;-4.472;2023-05-07T12:13:35;16.87;71.83
76239;SHT30;65043;48.392;-4.472;2023-05-07T12:16:00;16.84;71.50
76239;SHT30;65043;48.392;-4.472;2023-05-07T12:18:28;16.87;71.38
76239;SHT30;65043;48.392;-4.472;2023-05-07T12:20:55;16.84;71.32
76239;SHT30;65043;48.392;-4.472;2023-05-07T12:23:21;16.85;71.54
76239;SHT30;65043;48.392;-4.472;2023-05-07T12:25:47;16.82;71.61
76239;SHT30;65043;48.392;-4.472;2023-05-07T12:28:13;16.78;71.53
76239;SHT30;65043;48.392;-4.472;2023-05-07T12:30:42;16.78;71.82
76239;SHT30;65043;48.392;-4.472;2023-05-07T12:33:07;16.77;71.81
76239;SHT30;65043;48.392;-4.472;2023-05-07T12:35:39;16.79;72.03
76239;SHT30;65043;48.392;-4.472;2023-05-07T12:38:08;16.78;71.82
76239;SHT30;65043;48.392;-4.472;2023-05-07T12:40:38;16.81;72.13
76239;SHT30;65043;48.392;-4.472;2023-05-07T12:43:04;16.77;71.74
76239;SHT30;65043;48.392;-4.472;2023-05-07T12:45:30;16.77;71.82
76239;SHT30;65043;48.392;-4.472;2023-05-07T12:47:56;16.78;71.98
76239;SHT30;65043;48.392;-4.472;2023-05-07T12:50:22;16.74;72.01
76239;SHT30;65043;48.392;-4.472;2023-05-07T12:52:48;16.74;72.09
76239;SHT30;65043;48.392;-4.472;2023-05-07T12:55:14;16.72;71.79
76239;SHT30;65043;48.392;-4.472;2023-05-07T12:57:47;16.74;71.76
76239;SHT30;65043;48.392;-4.472;2023-05-07T13:00:13;16.75;71.83
76239;SHT30;65043;48.392;-4.472;2023-05-07T13:02:41;16.75;71.67
76239;SHT30;65043;48.392;-4.472;2023-05-07T13:05:09;16.72;71.24
76239;SHT30;65043;48.392;-4.472;2023-05-07T13:07:34;16.72;71.61
76239;SHT30;65043;48.392;-4.472;2023-05-07T13:10:01;16.71;71.58
76239;SHT30;65043;48.392;-4.472;2023-05-07T13:12:26;16.70;71.07
76239;SHT30;65043;48.392;-4.472;2023-05-07T13:14:52;16.67;71.51
76239;SHT30;65043;48.392;-4.472;2023-05-07T13:17:17;16.65;71.23
76239;SHT30;65043;48.392;-4.472;2023-05-07T13:19:43;16.67;71.38
76239;SHT30;65043;48.392;-4.472;2023-05-07T13:22:09;16.67;71.40
76239;SHT30;65043;48.392;-4.472;2023-05-07T13:24:35;16.68;71.75
76239;SHT30;65043;48.392;-4.472;2023-05-07T13:27:00;16.68;71.65
76239;SHT30;65043;48.392;-4.472;2023-05-07T13:29:25;16.70;71.91
76239;SHT30;65043;48.392;-4.472;2023-05-07T13:31:56;16.77;71.92
76239;SHT30;65043;48.392;-4.472;2023-05-07T13:34:22;16.82;71.91
76239;SHT30;65043;48.392;-4.472;2023-05-07T13:36:47;16.85;71.94
76239;SHT30;65043;48.392;-4.472;2023-05-07T13:39:12;16.88;71.87
76239;SHT30;65043;48.392;-4.472;2023-05-07T13:41:38;16.94;72.23
76239;SHT30;65043;48.392;-4.472;2023-05-07T13:44:03;16.99;72.24
76239;SHT30;65043;48.392;-4.472;2023-05-07T13:46:29;17.02;72.28
76239;SHT30;65043;48.392;-4.472;2023-05-07T13:48:55;17.09;72.53
76239;SHT30;65043;48.392;-4.472;2023-05-07T13:51:21;17.09;71.92
76239;SHT30;65043;48.392;-4.472;2023-05-07T13:53:46;17.08;71.89
76239;SHT30;65043;48.392;-4.472;2023-05-07T13:56:12;17.09;71.84
76239;SHT30;65043;48.392;-4.472;2023-05-07T13:58:37;17.14;71.63
76239;SHT30;65043;48.392;-4.472;2023-05-07T14:01:03;17.12;71.84
76239;SHT30;65043;48.392;-4.472;2023-05-07T14:03:28;17.14;71.76
76239;SHT30;65043;48.392;-4.472;2023-05-07T14:05:56;17.08;71.66
76239;SHT30;65043;48.392;-4.472;2023-05-07T14:08:23;17.04;71.84
76239;SHT30;65043;48.392;-4.472;2023-05-07T14:10:48;17.05;71.78
76239;SHT30;65043;48.392;-4.472;2023-05-07T14:13:13;17.04;72.21
76239;SHT30;65043;48.392;-4.472;2023-05-07T14:15:39;17.08;72.29
76239;SHT30;65043;48.392;-4.472;2023-05-07T14:18:06;17.11;72.31
76239;SHT30;65043;48.392;-4.472;2023-05-07T14:20:32;17.16;72.53
76239;SHT30;65043;48.392;-4.472;2023-05-07T14:22:57;17.25;72.40
76239;SHT30;65043;48.392;-4.472;2023-05-07T14:25:22;17.29;72.64
76239;SHT30;65043;48.392;-4.472;2023-05-07T14:27:48;17.29;72.01
76239;SHT30;65043;48.392;-4.472;2023-05-07T14:30:13;17.29;72.05
76239;SHT30;65043;48.392;-4.472;2023-05-07T14:32:39;17.25;71.83
76239;SHT30;65043;48.392;-4.472;2023-05-07T14:35:05;17.14;72.42
76239;SHT30;65043;48.392;-4.472;2023-05-07T14:37:30;17.09;72.18
76239;SHT30;65043;48.392;-4.472;2023-05-07T14:39:55;17.12;72.29
76239;SHT30;65043;48.392;-4.472;2023-05-07T14:42:21;17.12;72.35
76239;SHT30;65043;48.392;-4.472;2023-05-07T14:44:46;17.15;72.50
76239;SHT30;65043;48.392;-4.472;2023-05-07T14:47:13;17.18;72.40
76239;SHT30;65043;48.392;-4.472;2023-05-07T14:49:39;17.19;72.26
76239;SHT30;65043;48.392;-4.472;2023-05-07T14:52:06;17.12;72.52
76239;SHT30;65043;48.392;-4.472;2023-05-07T14:54:33;17.14;72.38
76239;SHT30;65043;48.392;-4.472;2023-05-07T14:57:01;17.14;72.12
76239;SHT30;65043;48.392;-4.472;2023-05-07T14:59:26;17.16;72.42
76239;SHT30;65043;48.392;-4.472;2023-05-07T15:01:52;17.18;72.36
76239;SHT30;65043;48.392;-4.472;2023-05-07T15:04:17;17.20;72.42
76239;SHT30;65043;48.392;-4.472;2023-05-07T15:06:43;17.20;72.30
76239;SHT30;65043;48.392;-4.472;2023-05-07T15:09:08;17.22;72.21
76239;SHT30;65043;48.392;-4.472;2023-05-07T15:11:34;17.20;72.27
76239;SHT30;65043;48.392;-4.472;2023-05-07T15:13:59;17.23;72.63
76239;SHT30;65043;48.392;-4.472;2023-05-07T15:16:25;17.25;72.68
76239;SHT30;65043;48.392;-4.472;2023-05-07T15:18:50;17.28;72.27
76239;SHT30;65043;48.392;-4.472;2023-05-07T15:21:16;17.32;72.26
76239;SHT30;65043;48.392;-4.472;2023-05-07T15:23:41;17.36;71.86
76239;SHT30;65043;48.392;-4.472;2023-05-07T15:26:06;17.42;71.95